sensor_id;sensor_type;location;lat;lon;timestamp;pressure;altitude;pressure_sealevel;temperature;humidity
84967;BME280;75275;51.348;12.358;2024-02-15T00:00:00;100716.84;;;10.25;80.35
84967;BME280;75275;51.348;12.358;2024-02-15T00:02:30;100715.78;;;10.26;80.25
84967;BME280;75275;51.348;12.358;2024-02-15T00:04:57;100718.00;;;10.29;79.91
84967;BME280;75275;51.348;12.358;2024-02-15T00:07:24;100718.00;;;10.29;80.32
84967;BME280;75275;51.348;12.358;2024-02-15T00:09:51;100717.44;;;10.27;80.41
84967;BME280;75275;51.348;12.358;2024-02-15T00:12:19;100715.81;;;10.31;79.99
84967;BME280;75275;51.348;12.358;2024-02-15T00:14:47;100707.03;;;10.29;80.09
84967;BME280;75275;51.348;12.358;2024-02-15T00:17:14;100714.44;;;10.28;80.31
84967;BME280;75275;51.348;12.358;2024-02-15T00:19:43;100705.66;;;10.26;80.48
84967;BME280;75275;51.348;12.358;2024-02-15T00:22:10;100709.69;;;10.24;80.69
84967;BME280;75275;51.348;12.358;2024-02-15T00:24:37;100717.09;;;10.23;80.20
84967;BME280;75275;51.348;12.358;2024-02-15T00:27:04;100717.69;;;10.25;80.50
84967;BME280;75275;51.348;12.358;2024-02-15T00:29:31;100711.31;;;10.20;80.46
84967;BME280;75275;51.348;12.358;2024-02-15T00:31:59;100711.88;;;10.22;80.26
84967;BME280;75275;51.348;12.358;2024-02-15T00:34:26;100710.75;;;10.18;80.44
84967;BME280;75275;51.348;12.358;2024-02-15T00:36:54;100713.53;;;10.23;80.69
84967;BME280;75275;51.348;12.358;2024-02-15T00:39:21;100716.84;;;10.25;80.78
84967;BME280;75275;51.348;12.358;2024-02-15T00:41:48;100708.16;;;10.28;80.18
84967;BME280;75275;51.348;12.358;2024-02-15T00:44:16;100716.34;;;10.28;80.39
84967;BME280;75275;51.348;12.358;2024-02-15T00:46:43;100715.78;;;10.26;80.43
84967;BME280;75275;51.348;12.358;2024-02-15T00:49:10;100712.22;;;10.25;80.24
84967;BME280;75275;51.348;12.358;2024-02-15T00:51:37;100718.00;;;10.29;80.37
84967;BME280;75275;51.348;12.358;2024-02-15T00:54:06;100717.44;;;10.27;80.52
84967;BME280;75275;51.348;12.358;2024-02-15T00:56:33;100713.13;;;10.36;79.83
84967;BME280;75275;51.348;12.358;2024-02-15T00:59:00;100721.38;;;10.41;79.80
84967;BME280;75275;51.348;12.358;2024-02-15T01:01:27;100715.06;;;10.41;79.86
84967;BME280;75275;51.348;12.358;2024-02-15T01:04:01;100715.88;;;10.41;79.97
84967;BME280;75275;51.348;12.358;2024-02-15T01:06:27;100718.38;;;10.43;79.67
84967;BME280;75275;51.348;12.358;2024-02-15T01:09:00;100716.19;;;10.45;79.56
84967;BME280;75275;51.348;12.358;2024-02-15T01:11:31;100717.56;;;10.42;80.25
84967;BME280;75275;51.348;12.358;2024-02-15T01:13:58;100714.25;;;10.40;80.18
84967;BME280;75275;51.348;12.358;2024-02-15T01:16:26;100710.41;;;10.41;80.06
84967;BME280;75275;51.348;12.358;2024-02-15T01:18:56;100710.72;;;10.45;80.29
84967;BME280;75275;51.348;12.358;2024-02-15T01:21:22;100703.63;;;10.49;79.97
84967;BME280;75275;51.348;12.358;2024-02-15T01:23:51;100707.75;;;10.51;79.86
84967;BME280;75275;51.348;12.358;2024-02-15T01:26:19;100710.50;;;10.51;79.52
84967;BME280;75275;51.348;12.358;2024-02-15T01:28:47;100712.09;;;10.47;80.19
84967;BME280;75275;51.348;12.358;2024-02-15T01:31:14;100706.91;;;10.46;80.22
84967;BME280;75275;51.348;12.358;2024-02-15T01:33:43;100705.75;;;10.42;80.13
84967;BME280;75275;51.348;12.358;2024-02-15T01:36:13;100705.75;;;10.42;80.31
84967;BME280;75275;51.348;12.358;2024-02-15T01:38:41;100707.13;;;10.39;80.56
84967;BME280;75275;51.348;12.358;2024-02-15T01:41:08;100704.09;;;10.41;80.84
84967;BME280;75275;51.348;12.358;2024-02-15T01:43:37;100709.88;;;10.39;80.60
84967;BME280;75275;51.348;12.358;2024-02-15T01:46:08;100715.06;;;10.41;80.90
84967;BME280;75275;51.348;12.358;2024-02-15T01:48:36;100704.69;;;10.43;80.36
84967;BME280;75275;51.348;12.358;2024-02-15T01:51:07;100700.53;;;10.40;80.43
84967;BME280;75275;51.348;12.358;2024-02-15T01:53:35;100704.38;;;10.39;80.86
84967;BME280;75275;51.348;12.358;2024-02-15T01:56:04;100709.88;;;10.39;80.54
84967;BME280;75275;51.348;12.358;2024-02-15T01:58:32;100703.81;;;10.37;80.85
84967;BME280;75275;51.348;12.358;2024-02-15T02:01:02;100707.94;;;10.40;80.85
84967;BME280;75275;51.348;12.358;2024-02-15T02:03:34;100704.41;;;10.44;80.53
84967;BME280;75275;51.348;12.358;2024-02-15T02:06:01;100700.56;;;10.45;80.22
84967;BME280;75275;51.348;12.358;2024-02-15T02:08:28;100695.66;;;10.47;80.29
84967;BME280;75275;51.348;12.358;2024-02-15T02:10:55;100700.03;;;10.43;80.22
84967;BME280;75275;51.348;12.358;2024-02-15T02:13:23;100700.28;;;10.42;80.90
84967;BME280;75275;51.348;12.358;2024-02-15T02:15:50;100695.09;;;10.45;80.59
84967;BME280;75275;51.348;12.358;2024-02-15T02:18:20;100694.56;;;10.48;80.36
84967;BME280;75275;51.348;12.358;2024-02-15T02:20:48;100696.22;;;10.49;80.25
84967;BME280;75275;51.348;12.358;2024-02-15T02:23:16;100699.25;;;10.53;80.29
84967;BME280;75275;51.348;12.358;2024-02-15T02:25:46;100698.19;;;10.54;80.25
84967;BME280;75275;51.348;12.358;2024-02-15T02:28:15;100703.13;;;10.57;80.15
84967;BME280;75275;51.348;12.358;2024-02-15T02:30:42;100700.13;;;10.58;79.92
84967;BME280;75275;51.348;12.358;2024-02-15T02:33:17;100704.25;;;10.61;79.98
84967;BME280;75275;51.348;12.358;2024-02-15T02:35:48;100697.69;;;10.62;80.10
84967;BME280;75275;51.348;12.358;2024-02-15T02:38:15;100693.81;;;10.58;79.90
84967;BME280;75275;51.348;12.358;2024-02-15T02:40:42;100690.25;;;10.57;80.12
84967;BME280;75275;51.348;12.358;2024-02-15T02:43:10;100690.25;;;10.57;80.06
84967;BME280;75275;51.348;12.358;2024-02-15T02:45:38;100693.53;;;10.59;79.83
84967;BME280;75275;51.348;12.358;2024-02-15T02:48:07;100693.53;;;10.59;80.15
84967;BME280;75275;51.348;12.358;2024-02-15T02:50:34;100691.63;;;10.60;80.12
84967;BME280;75275;51.348;12.358;2024-02-15T02:53:01;100691.38;;;10.62;80.20
84967;BME280;75275;51.348;12.358;2024-02-15T02:55:28;100688.63;;;10.62;80.34
84967;BME280;75275;51.348;12.358;2024-02-15T02:57:56;100688.88;;;10.60;80.16
84967;BME280;75275;51.348;12.358;2024-02-15T03:00:24;100686.19;;;10.65;79.93
84967;BME280;75275;51.348;12.358;2024-02-15T03:02:52;100685.09;;;10.66;79.91
84967;BME280;75275;51.348;12.358;2024-02-15T03:05:22;100691.91;;;10.64;79.60
84967;BME280;75275;51.348;12.358;2024-02-15T03:07:49;100678.78;;;10.66;79.73
84967;BME280;75275;51.348;12.358;2024-02-15T03:10:20;100682.09;;;10.68;79.97
84967;BME280;75275;51.348;12.358;2024-02-15T03:12:47;100676.34;;;10.69;79.55
84967;BME280;75275;51.348;12.358;2024-02-15T03:15:18;100679.66;;;10.71;79.36
84967;BME280;75275;51.348;12.358;2024-02-15T03:17:47;100677.44;;;10.68;79.92
84967;BME280;75275;51.348;12.358;2024-02-15T03:20:15;100676.34;;;10.69;79.56
84967;BME280;75275;51.348;12.358;2024-02-15T03:22:50;100678.78;;;10.71;79.83
84967;BME280;75275;51.348;12.358;2024-02-15T03:25:18;100677.44;;;10.73;79.58
84967;BME280;75275;51.348;12.358;2024-02-15T03:27:45;100671.69;;;10.70;79.76
84967;BME280;75275;51.348;12.358;2024-02-15T03:30:12;100674.94;;;10.67;79.93
84967;BME280;75275;51.348;12.358;2024-02-15T03:32:39;100672.19;;;10.67;79.59
84967;BME280;75275;51.348;12.358;2024-02-15T03:35:09;100671.94;;;10.68;79.57
84967;BME280;75275;51.348;12.358;2024-02-15T03:37:39;100679.59;;;10.66;79.77
84967;BME280;75275;51.348;12.358;2024-02-15T03:40:10;100677.69;;;10.67;79.98
84967;BME280;75275;51.348;12.358;2024-02-15T03:42:37;100680.94;;;10.64;80.20
84967;BME280;75275;51.348;12.358;2024-02-15T03:45:05;100677.66;;;10.62;80.14
84967;BME280;75275;51.348;12.358;2024-02-15T03:47:32;100688.09;;;10.65;80.22
84967;BME280;75275;51.348;12.358;2024-02-15T03:50:01;100689.75;;;10.66;79.90
84967;BME280;75275;51.348;12.358;2024-02-15T03:52:33;100691.16;;;10.68;79.83
84967;BME280;75275;51.348;12.358;2024-02-15T03:55:00;100700.19;;;10.69;79.79
84967;BME280;75275;51.348;12.358;2024-02-15T03:57:28;100698.00;;;10.71;79.76
84967;BME280;75275;51.348;12.358;2024-02-15T03:59:55;100703.47;;;10.71;79.74
84967;BME280;75275;51.348;12.358;2024-02-15T04:02:24;100710.63;;;10.72;79.51
84967;BME280;75275;51.348;12.358;2024-02-15T04:04:52;100709.53;;;10.73;79.99
84967;BME280;75275;51.348;12.358;2024-02-15T04:07:21;100709.00;;;10.76;79.69
84967;BME280;75275;51.348;12.358;2024-02-15T04:09:55;100706.25;;;10.76;79.61
84967;BME280;75275;51.348;12.358;2024-02-15T04:12:22;100721.06;;;10.75;79.65
84967;BME280;75275;51.348;12.358;2024-02-15T04:14:49;100709.50;;;10.68;79.83
84967;BME280;75275;51.348;12.358;2024-02-15T04:17:16;100712.50;;;10.66;80.00
84967;BME280;75275;51.348;12.358;2024-02-15T04:19:47;100709.22;;;10.64;80.18
84967;BME280;75275;51.348;12.358;2024-02-15T04:22:16;100710.56;;;10.62;80.43
84967;BME280;75275;51.348;12.358;2024-02-15T04:24:45;100712.47;;;10.61;80.43
84967;BME280;75275;51.348;12.358;2024-02-15T04:27:13;100710.25;;;10.58;79.98
84967;BME280;75275;51.348;12.358;2024-02-15T04:29:41;100717.38;;;10.59;80.36
84967;BME280;75275;51.348;12.358;2024-02-15T04:32:09;100707.25;;;10.59;80.39
84967;BME280;75275;51.348;12.358;2024-02-15T04:34:41;100712.72;;;10.59;80.40
84967;BME280;75275;51.348;12.358;2024-02-15T04:37:08;100706.19;;;10.60;80.28
84967;BME280;75275;51.348;12.358;2024-02-15T04:39:36;100708.91;;;10.60;80.40
84967;BME280;75275;51.348;12.358;2024-02-15T04:42:04;100710.81;;;10.60;80.31
84967;BME280;75275;51.348;12.358;2024-02-15T04:44:33;100707.25;;;10.59;80.00
84967;BME280;75275;51.348;12.358;2024-02-15T04:47:01;100710.56;;;10.62;80.20
84967;BME280;75275;51.348;12.358;2024-02-15T04:49:29;100702.63;;;10.65;79.82
84967;BME280;75275;51.348;12.358;2024-02-15T04:51:56;100715.22;;;10.61;79.97
84967;BME280;75275;51.348;12.358;2024-02-15T04:54:26;100717.13;;;10.60;80.31
84967;BME280;75275;51.348;12.358;2024-02-15T04:56:54;100723.44;;;10.61;80.08
84967;BME280;75275;51.348;12.358;2024-02-15T04:59:22;100711.09;;;10.58;80.21
84967;BME280;75275;51.348;12.358;2024-02-15T05:01:53;100711.59;;;10.55;80.39
84967;BME280;75275;51.348;12.358;2024-02-15T05:04:23;100709.97;;;10.59;80.32
84967;BME280;75275;51.348;12.358;2024-02-15T05:06:50;100715.22;;;10.61;80.23
84967;BME280;75275;51.348;12.358;2024-02-15T05:09:18;100716.03;;;10.62;80.25
84967;BME280;75275;51.348;12.358;2024-02-15T05:11:45;100711.38;;;10.62;79.89
84967;BME280;75275;51.348;12.358;2024-02-15T05:14:15;100705.91;;;10.62;80.32
84967;BME280;75275;51.348;12.358;2024-02-15T05:16:45;100713.31;;;10.62;80.01
84967;BME280;75275;51.348;12.358;2024-02-15T05:19:16;100709.97;;;10.59;80.08
84967;BME280;75275;51.348;12.358;2024-02-15T05:21:45;100715.69;;;10.53;80.36
84967;BME280;75275;51.348;12.358;2024-02-15T05:24:12;100717.63;;;10.52;80.34
84967;BME280;75275;51.348;12.358;2024-02-15T05:26:40;100715.66;;;10.48;80.75
84967;BME280;75275;51.348;12.358;2024-02-15T05:29:09;100718.09;;;10.39;80.88
84967;BME280;75275;51.348;12.358;2024-02-15T05:31:36;100724.63;;;10.38;80.82
84967;BME280;75275;51.348;12.358;2024-02-15T05:34:06;100724.63;;;10.38;81.25
84967;BME280;75275;51.348;12.358;2024-02-15T05:36:38;100727.13;;;10.40;80.77
84967;BME280;75275;51.348;12.358;2024-02-15T05:39:06;100724.38;;;10.40;81.09
84967;BME280;75275;51.348;12.358;2024-02-15T05:41:38;100718.91;;;10.40;80.58
84967;BME280;75275;51.348;12.358;2024-02-15T05:44:05;100712.59;;;10.39;80.82
84967;BME280;75275;51.348;12.358;2024-02-15T05:46:33;100715.00;;;10.30;81.24
84967;BME280;75275;51.348;12.358;2024-02-15T05:49:03;100722.03;;;10.21;81.39
84967;BME280;75275;51.348;12.358;2024-02-15T05:51:33;100723.38;;;10.19;81.80
84967;BME280;75275;51.348;12.358;2024-02-15T05:54:01;100716.25;;;10.18;81.94
84967;BME280;75275;51.348;12.358;2024-02-15T05:56:30;100717.78;;;10.08;81.96
84967;BME280;75275;51.348;12.358;2024-02-15T05:58:57;100716.16;;;10.07;82.16
84967;BME280;75275;51.348;12.358;2024-02-15T06:01:27;100715.03;;;10.03;82.27
84967;BME280;75275;51.348;12.358;2024-02-15T06:03:55;100715.25;;;10.02;81.94
84967;BME280;75275;51.348;12.358;2024-02-15T06:06:23;100708.41;;;9.99;82.28
84967;BME280;75275;51.348;12.358;2024-02-15T06:08:51;100710.56;;;9.97;82.14
84967;BME280;75275;51.348;12.358;2024-02-15T06:11:20;100726.47;;;9.95;82.54
84967;BME280;75275;51.348;12.358;2024-02-15T06:13:46;100725.88;;;9.93;82.36
84967;BME280;75275;51.348;12.358;2024-02-15T06:16:13;100720.09;;;9.89;82.71
84967;BME280;75275;51.348;12.358;2024-02-15T06:18:40;100720.38;;;9.88;82.40
84967;BME280;75275;51.348;12.358;2024-02-15T06:21:07;100716.47;;;9.84;83.09
84967;BME280;75275;51.348;12.358;2024-02-15T06:23:34;100730.13;;;9.79;82.84
84967;BME280;75275;51.348;12.358;2024-02-15T06:26:01;100727.34;;;9.74;83.40
84967;BME280;75275;51.348;12.358;2024-02-15T06:28:30;100727.03;;;9.70;83.24
84967;BME280;75275;51.348;12.358;2024-02-15T06:31:15;100723.91;;;9.61;84.13
84967;BME280;75275;51.348;12.358;2024-02-15T06:33:59;100729.38;;;9.61;84.41
84967;BME280;75275;51.348;12.358;2024-02-15T06:36:48;100735.44;;;9.63;83.56
84967;BME280;75275;51.348;12.358;2024-02-15T06:39:33;100728.94;;;9.70;83.74
84967;BME280;75275;51.348;12.358;2024-02-15T06:42:09;100728.16;;;9.74;83.32
84967;BME280;75275;51.348;12.358;2024-02-15T06:44:42;100732.31;;;9.77;83.48
84967;BME280;75275;51.348;12.358;2024-02-15T06:47:11;100727.13;;;9.80;82.94
84967;BME280;75275;51.348;12.358;2024-02-15T06:49:39;100733.19;;;9.87;82.65
84967;BME280;75275;51.348;12.358;2024-02-15T06:52:10;100732.19;;;9.94;82.91
84967;BME280;75275;51.348;12.358;2024-02-15T06:54:38;100739.38;;;10.00;82.47
84967;BME280;75275;51.348;12.358;2024-02-15T06:57:05;100737.34;;;10.17;82.11
84967;BME280;75275;51.348;12.358;2024-02-15T06:59:33;100744.59;;;10.33;81.49
84967;BME280;75275;51.348;12.358;2024-02-15T07:02:07;100740.63;;;10.51;80.30
84967;BME280;75275;51.348;12.358;2024-02-15T07:04:34;100730.88;;;10.71;79.51
84967;BME280;75275;51.348;12.358;2024-02-15T07:07:02;100751.03;;;10.87;79.11
84967;BME280;75275;51.348;12.358;2024-02-15T07:09:29;100743.63;;;10.92;78.57
84967;BME280;75275;51.348;12.358;2024-02-15T07:11:56;100743.94;;;10.96;78.72
84967;BME280;75275;51.348;12.358;2024-02-15T07:14:24;100742.28;;;10.95;78.70
84967;BME280;75275;51.348;12.358;2024-02-15T07:16:55;100741.47;;;10.94;78.86
84967;BME280;75275;51.348;12.358;2024-02-15T07:19:25;100744.44;;;10.93;78.84
84967;BME280;75275;51.348;12.358;2024-02-15T07:21:52;100730.50;;;10.99;78.79
84967;BME280;75275;51.348;12.358;2024-02-15T07:24:20;100740.69;;;11.04;78.52
84967;BME280;75275;51.348;12.358;2024-02-15T07:26:47;100740.72;;;11.14;78.00
84967;BME280;75275;51.348;12.358;2024-02-15T07:29:17;100747.63;;;11.22;77.26
84967;BME280;75275;51.348;12.358;2024-02-15T07:31:45;100753.69;;;11.29;77.19
84967;BME280;75275;51.348;12.358;2024-02-15T07:34:14;100752.09;;;11.33;77.46
84967;BME280;75275;51.348;12.358;2024-02-15T07:36:43;100742.47;;;11.36;77.34
84967;BME280;75275;51.348;12.358;2024-02-15T07:39:10;100752.34;;;11.31;77.72
84967;BME280;75275;51.348;12.358;2024-02-15T07:41:44;100746.59;;;11.38;77.56
84967;BME280;75275;51.348;12.358;2024-02-15T07:44:11;100737.84;;;11.46;77.06
84967;BME280;75275;51.348;12.358;2024-02-15T07:46:38;100748.81;;;11.46;77.33
84967;BME280;75275;51.348;12.358;2024-02-15T07:49:05;100743.09;;;11.53;76.99
84967;BME280;75275;51.348;12.358;2024-02-15T07:51:33;100745.53;;;11.54;76.72
84967;BME280;75275;51.348;12.358;2024-02-15T07:54:03;100750.53;;;11.63;76.58
84967;BME280;75275;51.348;12.358;2024-02-15T07:56:32;100753.31;;;11.73;76.15
84967;BME280;75275;51.348;12.358;2024-02-15T07:59:00;100753.31;;;11.73;76.08
84967;BME280;75275;51.348;12.358;2024-02-15T08:01:28;100754.69;;;11.80;75.86
84967;BME280;75275;51.348;12.358;2024-02-15T08:03:56;100754.44;;;11.87;75.69
84967;BME280;75275;51.348;12.358;2024-02-15T08:06:22;100757.22;;;11.92;75.35
84967;BME280;75275;51.348;12.358;2024-02-15T08:08:53;100752.81;;;11.96;75.31
84967;BME280;75275;51.348;12.358;2024-02-15T08:11:23;100758.03;;;11.98;75.33
84967;BME280;75275;51.348;12.358;2024-02-15T08:13:52;100756.97;;;11.99;75.31
84967;BME280;75275;51.348;12.358;2024-02-15T08:16:24;100750.66;;;12.03;75.10
84967;BME280;75275;51.348;12.358;2024-02-15T08:18:55;100748.44;;;12.00;74.97
84967;BME280;75275;51.348;12.358;2024-02-15T08:21:25;100745.16;;;11.98;75.28
84967;BME280;75275;51.348;12.358;2024-02-15T08:23:54;100746.25;;;12.02;75.32
84967;BME280;75275;51.348;12.358;2024-02-15T08:26:24;100742.41;;;12.14;74.98
84967;BME280;75275;51.348;12.358;2024-02-15T08:28:52;100740.47;;;12.19;74.38
84967;BME280;75275;51.348;12.358;2024-02-15T08:31:24;100738.00;;;12.23;74.43
84967;BME280;75275;51.348;12.358;2024-02-15T08:33:56;100741.03;;;12.37;74.31
84967;BME280;75275;51.348;12.358;2024-02-15T08:36:24;100736.09;;;12.44;74.35
84967;BME280;75275;51.348;12.358;2024-02-15T08:38:51;100734.13;;;12.60;73.50
84967;BME280;75275;51.348;12.358;2024-02-15T08:41:17;100740.16;;;12.77;73.14
84967;BME280;75275;51.348;12.358;2024-02-15T08:43:47;100741.22;;;12.91;72.39
84967;BME280;75275;51.348;12.358;2024-02-15T08:46:15;100740.16;;;12.87;72.08
84967;BME280;75275;51.348;12.358;2024-02-15T08:48:41;100739.06;;;12.83;72.40
84967;BME280;75275;51.348;12.358;2024-02-15T08:51:09;100741.50;;;12.85;72.61
84967;BME280;75275;51.348;12.358;2024-02-15T08:53:38;100739.84;;;12.89;72.11
84967;BME280;75275;51.348;12.358;2024-02-15T08:56:05;100737.94;;;12.94;72.23
84967;BME280;75275;51.348;12.358;2024-02-15T08:58:35;100731.88;;;12.92;72.41
84967;BME280;75275;51.348;12.358;2024-02-15T09:01:03;100734.66;;;12.87;72.69
84967;BME280;75275;51.348;12.358;2024-02-15T09:03:30;100733.81;;;12.97;72.47
84967;BME280;75275;51.348;12.358;2024-02-15T09:05:57;100732.94;;;13.07;72.18
84967;BME280;75275;51.348;12.358;2024-02-15T09:08:24;100739.50;;;13.11;71.68
84967;BME280;75275;51.348;12.358;2024-02-15T09:10:51;100741.72;;;13.19;71.90
84967;BME280;75275;51.348;12.358;2024-02-15T09:13:19;100736.19;;;13.19;71.37
84967;BME280;75275;51.348;12.358;2024-02-15T09:15:46;100740.34;;;13.27;71.88
84967;BME280;75275;51.348;12.358;2024-02-15T09:18:24;100736.75;;;13.26;71.96
84967;BME280;75275;51.348;12.358;2024-02-15T09:20:51;100731.69;;;13.48;71.36
84967;BME280;75275;51.348;12.358;2024-02-15T09:23:21;100727.75;;;13.65;70.06
84967;BME280;75275;51.348;12.358;2024-02-15T09:25:49;100731.25;;;13.81;70.03
84967;BME280;75275;51.348;12.358;2024-02-15T09:28:17;100724.81;;;13.90;69.09
84967;BME280;75275;51.348;12.358;2024-02-15T09:30:48;100725.75;;;14.15;68.96
84967;BME280;75275;51.348;12.358;2024-02-15T09:33:19;100722.16;;;14.54;67.42
84967;BME280;75275;51.348;12.358;2024-02-15T09:35:46;100719.03;;;14.89;66.52
84967;BME280;75275;51.348;12.358;2024-02-15T09:38:16;100723.81;;;15.03;65.22
84967;BME280;75275;51.348;12.358;2024-02-15T09:40:48;100724.53;;;14.89;65.64
84967;BME280;75275;51.348;12.358;2024-02-15T09:43:16;100726.19;;;14.90;65.77
84967;BME280;75275;51.348;12.358;2024-02-15T09:45:42;100728.88;;;14.72;66.18
84967;BME280;75275;51.348;12.358;2024-02-15T09:48:10;100735.41;;;14.52;67.86
84967;BME280;75275;51.348;12.358;2024-02-15T09:50:42;100731.69;;;14.32;68.36
84967;BME280;75275;51.348;12.358;2024-02-15T09:53:12;100735.81;;;14.35;68.34
84967;BME280;75275;51.348;12.358;2024-02-15T09:55:40;100740.63;;;14.48;67.71
84967;BME280;75275;51.348;12.358;2024-02-15T09:58:08;100742.47;;;14.63;67.11
84967;BME280;75275;51.348;12.358;2024-02-15T10:00:35;100744.47;;;14.81;67.09
84967;BME280;75275;51.348;12.358;2024-02-15T10:03:05;100738.69;;;14.83;67.09
84967;BME280;75275;51.348;12.358;2024-02-15T10:05:32;100737.88;;;14.82;67.14
84967;BME280;75275;51.348;12.358;2024-02-15T10:08:02;100741.44;;;15.07;66.51
84967;BME280;75275;51.348;12.358;2024-02-15T10:10:30;100739.84;;;15.25;66.23
84967;BME280;75275;51.348;12.358;2024-02-15T10:12:59;100744.31;;;15.45;65.59
84967;BME280;75275;51.348;12.358;2024-02-15T10:15:35;100742.72;;;15.38;65.10
84967;BME280;75275;51.348;12.358;2024-02-15T10:18:04;100737.56;;;15.32;65.36
84967;BME280;75275;51.348;12.358;2024-02-15T10:20:31;100744.22;;;15.31;64.87
84967;BME280;75275;51.348;12.358;2024-02-15T10:23:11;100738.13;;;15.53;64.80
84967;BME280;75275;51.348;12.358;2024-02-15T10:25:39;100747.72;;;15.79;64.33
84967;BME280;75275;51.348;12.358;2024-02-15T10:28:07;100741.69;;;15.77;63.55
84967;BME280;75275;51.348;12.358;2024-02-15T10:30:41;100741.94;;;15.57;63.79
84967;BME280;75275;51.348;12.358;2024-02-15T10:33:18;100736.72;;;15.55;64.22
84967;BME280;75275;51.348;12.358;2024-02-15T10:35:46;100737.91;;;15.49;64.80
84967;BME280;75275;51.348;12.358;2024-02-15T10:38:16;100735.03;;;15.35;64.96
84967;BME280;75275;51.348;12.358;2024-02-15T10:40:44;100734.53;;;15.33;64.75
84967;BME280;75275;51.348;12.358;2024-02-15T10:43:11;100736.03;;;15.45;64.92
84967;BME280;75275;51.348;12.358;2024-02-15T10:45:39;100730.72;;;15.48;64.65
84967;BME280;75275;51.348;12.358;2024-02-15T10:48:10;100731.91;;;15.42;64.93
84967;BME280;75275;51.348;12.358;2024-02-15T10:50:42;100732.72;;;15.43;64.56
84967;BME280;75275;51.348;12.358;2024-02-15T10:53:21;100733.59;;;15.62;64.46
84967;BME280;75275;51.348;12.358;2024-02-15T10:55:55;100729.38;;;15.88;63.59
84967;BME280;75275;51.348;12.358;2024-02-15T10:58:26;100723.69;;;15.99;63.11
84967;BME280;75275;51.348;12.358;2024-02-15T11:00:56;100719.63;;;16.10;62.69
84967;BME280;75275;51.348;12.358;2024-02-15T11:03:34;100716.09;;;16.23;62.17
84967;BME280;75275;51.348;12.358;2024-02-15T11:06:02;100712.28;;;16.19;62.07
84967;BME280;75275;51.348;12.358;2024-02-15T11:08:34;100713.66;;;16.03;62.76
84967;BME280;75275;51.348;12.358;2024-02-15T11:11:07;100708.88;;;15.89;62.96
84967;BME280;75275;51.348;12.358;2024-02-15T11:13:37;100713.69;;;15.84;62.43
84967;BME280;75275;51.348;12.358;2024-02-15T11:16:04;100710.84;;;15.70;63.13
84967;BME280;75275;51.348;12.358;2024-02-15T11:18:52;100705.44;;;15.79;63.09
84967;BME280;75275;51.348;12.358;2024-02-15T11:21:55;100701.47;;;16.04;62.82
84967;BME280;75275;51.348;12.358;2024-02-15T11:24:26;100696.97;;;16.27;61.66
84967;BME280;75275;51.348;12.358;2024-02-15T11:26:58;100701.72;;;16.54;61.28
84967;BME280;75275;51.348;12.358;2024-02-15T11:29:55;100692.25;;;16.74;60.52
84967;BME280;75275;51.348;12.358;2024-02-15T11:32:37;100688.81;;;16.96;59.65
84967;BME280;75275;51.348;12.358;2024-02-15T11:35:09;100690.41;;;17.24;59.10
84967;BME280;75275;51.348;12.358;2024-02-15T11:38:06;100685.09;;;17.64;57.86
84967;BME280;75275;51.348;12.358;2024-02-15T11:41:08;100686.09;;;17.68;57.26
84967;BME280;75275;51.348;12.358;2024-02-15T11:43:50;100679.06;;;17.62;56.83
84967;BME280;75275;51.348;12.358;2024-02-15T11:46:21;100679.53;;;17.64;56.66
84967;BME280;75275;51.348;12.358;2024-02-15T11:48:52;100686.63;;;17.84;56.62
84967;BME280;75275;51.348;12.358;2024-02-15T11:51:30;100674.19;;;17.82;56.42
84967;BME280;75275;51.348;12.358;2024-02-15T11:54:07;100677.50;;;17.70;56.61
84967;BME280;75275;51.348;12.358;2024-02-15T11:56:56;100671.56;;;17.63;56.91
84967;BME280;75275;51.348;12.358;2024-02-15T11:59:41;100668.03;;;17.71;56.90
84967;BME280;75275;51.348;12.358;2024-02-15T12:02:39;100666.59;;;17.73;55.95
84967;BME280;75275;51.348;12.358;2024-02-15T12:05:23;100673.22;;;17.50;57.11
84967;BME280;75275;51.348;12.358;2024-02-15T12:08:10;100661.75;;;17.43;57.23
84967;BME280;75275;51.348;12.358;2024-02-15T12:10:59;100656.84;;;17.40;56.64
84967;BME280;75275;51.348;12.358;2024-02-15T12:13:49;100658.31;;;17.09;57.42
84967;BME280;75275;51.348;12.358;2024-02-15T12:16:35;100655.88;;;16.94;58.52
84967;BME280;75275;51.348;12.358;2024-02-15T12:19:19;100656.47;;;16.77;58.70
84967;BME280;75275;51.348;12.358;2024-02-15T12:21:47;100657.47;;;16.54;59.29
84967;BME280;75275;51.348;12.358;2024-02-15T12:24:15;100652.50;;;16.37;60.10
84967;BME280;75275;51.348;12.358;2024-02-15T12:26:45;100658.44;;;16.30;60.24
84967;BME280;75275;51.348;12.358;2024-02-15T12:29:16;100655.22;;;16.09;60.79
84967;BME280;75275;51.348;12.358;2024-02-15T12:31:44;100651.47;;;16.00;60.95
84967;BME280;75275;51.348;12.358;2024-02-15T12:34:11;100654.19;;;15.86;61.34
84967;BME280;75275;51.348;12.358;2024-02-15T12:36:48;100661.53;;;15.77;61.60
84967;BME280;75275;51.348;12.358;2024-02-15T12:39:24;100655.19;;;15.77;62.02
84967;BME280;75275;51.348;12.358;2024-02-15T12:41:59;100645.22;;;15.95;61.30
84967;BME280;75275;51.348;12.358;2024-02-15T12:44:27;100646.31;;;16.12;61.11
84967;BME280;75275;51.348;12.358;2024-02-15T12:46:58;100638.66;;;16.23;61.11
84967;BME280;75275;51.348;12.358;2024-02-15T12:49:29;100627.19;;;16.44;60.86
84967;BME280;75275;51.348;12.358;2024-02-15T12:52:35;100633.56;;;16.58;60.54
84967;BME280;75275;51.348;12.358;2024-02-15T12:55:13;100634.53;;;16.81;59.43